Denham, Indiana
Current Conditions -  °F | °C
As of 5:55 PM on Wednesday 28 Jan 2015 (Local Time) from KOXI Reporting Station
Clear Clear  
Wind Chill: 19°   Ceiling: Unl
Heat Index: 30°   Visibility: 10mi
Dew Point:   Wind: 16mph
Humidity: 38%   Direction: 140°SE
Pressure: 30.08"   Gusts: 21mph
Location:  41.0563°N, 86.6606°W
Report Text: KOXI 282355Z AUTO 14014G18KT 10SM CLR M01/M14 A3008 RMK AO1 T10091137 10273 21226
Loading
Personal Weather Stations






























Interactive Weather Map New forecast layout! Learn more

10-Day Weather Forecast

Advertisements
Track Severe Weather on mobile